Time;durP1;ratioP1;P1;durP2;ratioP2;P2;SDS_P1;SDS_P2;PMS_P1;PMS_P2;Temp;Humidity;BMP_temperature;BMP_pressure;BME280_temperature;BME280_humidity;BME280_pressure;Samples;Min_cycle;Max_cycle;Signal;HPM_P1;HPM_P2
2021/12/16 00:07:12;;;;;;;;;;;2.80;99.90;;;;;;5059332;28;19920;-47
2021/12/16 00:09:48;;;;;;;;;;;2.70;99.90;;;;;;5075528;28;19978;-47
2021/12/16 00:31:57;;;;;;;;;;;2.60;99.90;;;;;;5055254;28;20295;-47
2021/12/16 00:34:26;;;;;;;;;;;2.70;99.90;;;;;;5055590;28;19925;-47
2021/12/16 00:36:53;;;;;;;;;;;2.70;99.90;;;;;;5056110;28;19970;-47
2021/12/16 00:39:22;;;;;;;;;;;2.70;99.90;;;;;;5055572;28;20388;-47
2021/12/16 00:41:53;;;;;;;;;;;2.50;99.90;;;;;;5054812;28;20390;-47
2021/12/16 00:44:46;;;;;;;;;;;2.60;99.90;;;;;;5054981;28;19982;-47
2021/12/16 00:47:28;;;;;;;;;;;2.60;99.90;;;;;;5054338;28;19931;-47
2021/12/16 00:50:05;;;;;;;;;;;2.60;99.90;;;;;;5056305;28;20023;-47
2021/12/16 00:55:26;;;;;;;;;;;2.60;99.90;;;;;;5074341;28;20019;-47
2021/12/16 00:57:53;;;;;;;;;;;2.80;99.90;;;;;;5070055;28;19929;-47
2021/12/16 01:00:25;;;;;;;;;;;2.80;99.90;;;;;;5055077;28;19931;-46
2021/12/16 01:03:04;;;;;;;;;;;2.80;99.90;;;;;;5054589;28;19971;-47
2021/12/16 01:36:08;;;;;;;;;;;2.90;99.90;;;;;;5067192;28;19993;-47
2021/12/16 01:47:17;;;;;;;;;;;3.00;99.90;;;;;;5076525;28;20021;-48
2021/12/16 01:49:51;;;;;;;;;;;3.10;99.90;;;;;;5054581;28;19975;-47
2021/12/16 01:52:42;;;;;;;;;;;2.90;99.90;;;;;;5053795;28;20382;-47
2021/12/16 01:55:13;;;;;;;;;;;3.00;99.90;;;;;;5054064;28;19974;-47
2021/12/16 02:00:55;;;;;;;;;;;2.80;99.90;;;;;;5071620;28;19966;-47
2021/12/16 02:03:27;;;;;;;;;;;2.60;99.90;;;;;;5054202;28;20019;-47
2021/12/16 02:06:06;;;;;;;;;;;2.50;99.90;;;;;;5054108;28;19975;-47
2021/12/16 02:08:38;;;;;;;;;;;2.60;99.90;;;;;;5069793;28;19924;-47
2021/12/16 02:11:38;;;;;;;;;;;2.60;99.90;;;;;;5073937;28;19932;-47
2021/12/16 02:28:10;;;;;;;;;;;2.80;99.90;;;;;;5086216;28;19931;-47
2021/12/16 02:36:23;;;;;;;;;;;2.80;99.90;;;;;;5055139;28;19940;-47
2021/12/16 02:38:52;;;;;;;;;;;2.60;99.90;;;;;;5053692;28;19924;-47
2021/12/16 02:41:19;;;;;;;;;;;2.40;99.90;;;;;;5053323;28;19925;-48
2021/12/16 02:49:18;;;;;;;;;;;2.50;99.90;;;;;;5054715;28;19932;-47
2021/12/16 02:51:46;;;;;;;;;;;2.60;99.90;;;;;;5053094;28;19924;-47
2021/12/16 02:54:14;;;;;;;;;;;2.50;99.90;;;;;;5053267;28;19998;-47
2021/12/16 02:59:45;;;;;;;;;;;2.50;99.90;;;;;;5072987;28;19919;-47
2021/12/16 03:02:15;;;;;;;;;;;2.40;99.90;;;;;;5071074;28;19985;-47
2021/12/16 03:04:43;;;;;;;;;;;2.30;99.90;;;;;;5054306;28;19925;-47
2021/12/16 03:07:12;;;;;;;;;;;2.30;99.90;;;;;;5067437;28;19977;-48
2021/12/16 03:12:43;;;;;;;;;;;2.60;99.90;;;;;;5055128;28;19928;-47
2021/12/16 03:15:19;;;;;;;;;;;2.50;99.90;;;;;;5066166;28;19925;-47
2021/12/16 03:17:54;;;;;;;;;;;2.60;99.90;;;;;;5071792;28;19931;-47
2021/12/16 03:20:30;;;;;;;;;;;2.60;99.90;;;;;;5053196;28;19925;-47
2021/12/16 03:23:10;;;;;;;;;;;2.60;99.90;;;;;;5053809;28;20425;-47
2021/12/16 03:25:51;;;;;;;;;;;2.60;99.90;;;;;;5053605;28;19925;-48
2021/12/16 03:28:37;;;;;;;;;;;2.50;99.90;;;;;;5073101;28;19956;-47
2021/12/16 03:37:11;;;;;;;;;;;2.80;99.90;;;;;;5128033;28;20431;-47
2021/12/16 03:39:39;;;;;;;;;;;2.70;99.90;;;;;;5115776;27;20466;-47
2021/12/16 03:42:06;;;;;;;;;;;2.80;99.90;;;;;;5109612;28;19924;-47
2021/12/16 03:44:49;;;;;;;;;;;2.70;99.90;;;;;;5110431;28;20266;-47
2021/12/16 03:47:15;;;;;;;;;;;2.80;99.90;;;;;;5124047;28;19923;-47
2021/12/16 03:49:44;;;;;;;;;;;2.80;99.90;;;;;;5130579;27;19928;-47
2021/12/16 03:52:11;;;;;;;;;;;2.80;99.90;;;;;;5116173;27;19928;-47
2021/12/16 03:54:41;;;;;;;;;;;2.70;99.90;;;;;;5109812;28;19928;-47
2021/12/16 03:57:09;;;;;;;;;;;2.80;99.90;;;;;;5116760;28;19969;-47
2021/12/16 03:59:37;;;;;;;;;;;2.90;99.90;;;;;;5110314;28;20337;-47
2021/12/16 04:02:06;;;;;;;;;;;2.90;99.90;;;;;;5109528;28;19924;-47
2021/12/16 04:04:33;;;;;;;;;;;2.90;99.90;;;;;;5111108;28;19935;-47
2021/12/16 04:07:01;;;;;;;;;;;2.90;99.90;;;;;;5121119;27;19977;-47
2021/12/16 04:09:31;;;;;;;;;;;3.00;99.90;;;;;;5125522;28;19927;-47
2021/12/16 04:12:07;;;;;;;;;;;3.00;99.90;;;;;;5130568;27;19924;-47
2021/12/16 04:17:37;;;;;;;;;;;2.80;99.90;;;;;;5118026;28;19919;-47
2021/12/16 04:20:05;;;;;;;;;;;2.80;99.90;;;;;;5130268;27;19923;-47
2021/12/16 04:22:38;;;;;;;;;;;2.70;99.90;;;;;;5119203;27;20140;-47
2021/12/16 04:25:06;;;;;;;;;;;2.70;99.90;;;;;;5129948;27;19931;-47
2021/12/16 04:27:34;;;;;;;;;;;2.90;99.90;;;;;;5130380;27;19997;-47
2021/12/16 04:30:01;;;;;;;;;;;3.00;99.90;;;;;;5129763;27;19977;-47
2021/12/16 04:32:28;;;;;;;;;;;3.00;99.90;;;;;;5129434;27;19924;-47
2021/12/16 04:34:55;;;;;;;;;;;3.10;99.90;;;;;;5129954;27;20485;-47
2021/12/16 04:37:22;;;;;;;;;;;3.00;99.90;;;;;;5126533;27;19932;-47
2021/12/16 04:39:50;;;;;;;;;;;3.00;99.90;;;;;;5109043;28;19973;-47
2021/12/16 04:42:17;;;;;;;;;;;2.90;99.90;;;;;;5117674;28;19928;-47
2021/12/16 04:44:44;;;;;;;;;;;2.90;99.90;;;;;;5119423;27;19936;-47
2021/12/16 04:47:11;;;;;;;;;;;2.70;99.90;;;;;;5115801;28;19924;-47
2021/12/16 04:49:38;;;;;;;;;;;2.80;99.90;;;;;;5115714;28;19976;-47
2021/12/16 04:52:07;;;;;;;;;;;2.90;99.90;;;;;;5096375;28;19928;-47
2021/12/16 04:54:34;;;;;;;;;;;3.00;99.90;;;;;;5096453;28;19927;-47
2021/12/16 04:57:02;;;;;;;;;;;3.00;99.90;;;;;;5095363;28;19924;-47
2021/12/16 04:59:30;;;;;;;;;;;3.10;99.90;;;;;;5095395;28;20314;-47
2021/12/16 05:01:59;;;;;;;;;;;3.10;99.90;;;;;;5111157;28;19984;-47
2021/12/16 05:04:26;;;;;;;;;;;3.00;99.90;;;;;;5115196;28;20445;-47
2021/12/16 05:06:52;;;;;;;;;;;2.90;99.90;;;;;;5110706;28;20309;-47
2021/12/16 05:09:53;;;;;;;;;;;2.90;99.90;;;;;;5095613;28;19985;-47
2021/12/16 05:12:15;;;;;;;;;;;3.20;99.90;;;;;;5094816;28;19924;-47
2021/12/16 05:14:42;;;;;;;;;;;3.20;99.90;;;;;;5109233;28;20328;-47
2021/12/16 05:17:21;;;;;;;;;;;3.10;99.90;;;;;;5095622;28;20301;-47
2021/12/16 05:19:50;;;;;;;;;;;3.10;99.90;;;;;;5094657;28;19924;-47
2021/12/16 05:25:01;;;;;;;;;;;2.80;99.90;;;;;;5094655;28;19931;-47
2021/12/16 05:27:29;;;;;;;;;;;2.90;99.90;;;;;;5103275;28;19982;-47
2021/12/16 05:29:56;;;;;;;;;;;2.90;99.90;;;;;;5106470;28;19924;-52
2021/12/16 05:32:23;;;;;;;;;;;2.80;99.90;;;;;;5094985;28;19928;-48
2021/12/16 05:34:50;;;;;;;;;;;2.80;99.90;;;;;;5111952;28;19924;-47
2021/12/16 05:37:17;;;;;;;;;;;2.70;99.90;;;;;;5114754;28;19969;-47
2021/12/16 05:39:43;;;;;;;;;;;2.40;99.90;;;;;;5101784;28;19965;-47
2021/12/16 05:42:10;;;;;;;;;;;2.30;99.90;;;;;;5093768;28;19928;-48
2021/12/16 05:44:38;;;;;;;;;;;2.30;99.90;;;;;;5094062;28;19924;-47
2021/12/16 05:47:05;;;;;;;;;;;2.40;99.90;;;;;;5094718;28;19988;-47
2021/12/16 05:49:32;;;;;;;;;;;2.40;99.90;;;;;;5093611;28;19924;-47
2021/12/16 05:51:59;;;;;;;;;;;2.60;99.90;;;;;;5105219;28;19924;-47
2021/12/16 05:54:26;;;;;;;;;;;2.80;99.90;;;;;;5115710;22;19947;-51
2021/12/16 05:56:52;;;;;;;;;;;2.90;99.90;;;;;;5076865;28;19924;-52
2021/12/16 05:59:19;;;;;;;;;;;2.80;99.90;;;;;;5076234;28;19924;-51
2021/12/16 06:01:49;;;;;;;;;;;2.80;99.90;;;;;;5077409;28;19943;-50
2021/12/16 06:04:16;;;;;;;;;;;2.90;99.90;;;;;;5076270;28;19924;-51
2021/12/16 06:06:42;;;;;;;;;;;2.90;99.90;;;;;;5077179;28;19924;-53
2021/12/16 06:09:09;;;;;;;;;;;2.90;99.90;;;;;;5063820;28;19924;-51
2021/12/16 06:11:40;;;;;;;;;;;2.90;99.90;;;;;;5060680;28;19928;-51
2021/12/16 06:14:13;;;;;;;;;;;2.80;99.90;;;;;;5056956;28;20345;-51
2021/12/16 06:22:42;;;;;;;;;;;2.80;99.90;;;;;;5055489;28;19932;-52
2021/12/16 06:27:55;;;;;;;;;;;2.70;99.90;;;;;;5053376;28;19945;-53
2021/12/16 06:30:25;;;;;;;;;;;2.60;99.90;;;;;;5053307;28;19925;-51
2021/12/16 06:32:52;;;;;;;;;;;2.50;99.90;;;;;;5058835;28;19924;-51
2021/12/16 06:35:20;;;;;;;;;;;2.40;99.90;;;;;;5072858;28;19928;-51
2021/12/16 06:37:47;;;;;;;;;;;2.70;99.90;;;;;;5052820;28;19983;-51
2021/12/16 06:40:14;;;;;;;;;;;2.70;99.90;;;;;;5053144;28;19925;-51
2021/12/16 06:42:42;;;;;;;;;;;2.80;99.90;;;;;;5052156;28;19925;-52
2021/12/16 06:45:14;;;;;;;;;;;2.80;99.90;;;;;;5052634;28;19929;-53
2021/12/16 06:47:48;;;;;;;;;;;2.80;99.90;;;;;;5052347;28;19925;-52
2021/12/16 06:50:25;;;;;;;;;;;2.80;99.90;;;;;;5050274;28;19924;-50
2021/12/16 06:52:57;;;;;;;;;;;2.80;99.90;;;;;;5051021;28;19933;-51
2021/12/16 06:55:32;;;;;;;;;;;2.70;99.90;;;;;;5047538;28;20449;-54
2021/12/16 06:58:09;;;;;;;;;;;2.80;99.90;;;;;;5053804;28;19931;-51
2021/12/16 07:00:41;;;;;;;;;;;2.80;99.90;;;;;;5051696;28;20015;-53
2021/12/16 07:03:17;;;;;;;;;;;2.70;99.90;;;;;;5056884;28;20397;-51
2021/12/16 07:05:45;;;;;;;;;;;2.60;99.90;;;;;;5060128;28;19931;-51
2021/12/16 07:08:15;;;;;;;;;;;2.60;99.90;;;;;;5051814;28;20054;-52
2021/12/16 07:10:45;;;;;;;;;;;2.50;99.90;;;;;;5052292;28;19933;-51
2021/12/16 07:13:17;;;;;;;;;;;2.50;99.90;;;;;;5051616;28;20441;-51
2021/12/16 07:15:45;;;;;;;;;;;2.60;99.90;;;;;;5050734;28;19968;-51
2021/12/16 07:18:11;;;;;;;;;;;2.80;99.90;;;;;;5052520;28;19978;-50
2021/12/16 07:20:38;;;;;;;;;;;2.90;99.90;;;;;;5051970;28;19979;-52
2021/12/16 07:23:07;;;;;;;;;;;2.90;99.90;;;;;;5060635;28;19924;-51
2021/12/16 07:25:35;;;;;;;;;;;2.80;99.90;;;;;;5070699;28;19925;-50
2021/12/16 07:28:04;;;;;;;;;;;2.70;99.90;;;;;;5064006;28;19925;-51
2021/12/16 07:30:30;;;;;;;;;;;2.80;99.90;;;;;;5063652;28;19925;-53
2021/12/16 07:32:58;;;;;;;;;;;2.70;99.90;;;;;;5067877;28;19925;-51
2021/12/16 07:35:26;;;;;;;;;;;2.50;99.90;;;;;;5071859;28;19924;-52
2021/12/16 07:37:53;;;;;;;;;;;2.40;99.90;;;;;;5072124;28;19928;-52
2021/12/16 07:40:23;;;;;;;;;;;2.30;99.90;;;;;;5058000;28;19924;-52
2021/12/16 07:43:10;;;;;;;;;;;2.30;99.90;;;;;;5052673;28;19925;-50
2021/12/16 07:45:38;;;;;;;;;;;2.50;99.90;;;;;;5061110;28;20340;-51
2021/12/16 07:48:05;;;;;;;;;;;2.70;99.90;;;;;;5065741;28;20283;-52
2021/12/16 07:50:32;;;;;;;;;;;2.80;99.90;;;;;;5034448;28;19932;-50
2021/12/16 07:52:59;;;;;;;;;;;2.80;99.90;;;;;;5031731;28;20452;-51
2021/12/16 07:55:26;;;;;;;;;;;2.80;99.90;;;;;;5044322;28;20311;-51
2021/12/16 07:57:54;;;;;;;;;;;2.80;99.90;;;;;;5051781;28;19971;-51
2021/12/16 08:00:21;;;;;;;;;;;2.80;99.90;;;;;;5051776;28;19925;-50
2021/12/16 08:02:48;;;;;;;;;;;2.60;99.90;;;;;;5051618;28;19929;-52
2021/12/16 08:05:16;;;;;;;;;;;2.80;99.90;;;;;;5051058;28;19924;-51
2021/12/16 08:07:43;;;;;;;;;;;2.80;99.90;;;;;;5060964;28;19986;-51
2021/12/16 08:10:11;;;;;;;;;;;2.90;99.90;;;;;;5055508;28;19929;-52
2021/12/16 08:12:38;;;;;;;;;;;2.90;99.90;;;;;;5035206;28;19971;-51
2021/12/16 08:15:07;;;;;;;;;;;2.90;99.90;;;;;;5032119;28;19925;-52
2021/12/16 08:17:34;;;;;;;;;;;2.90;99.90;;;;;;5031706;28;19932;-51
2021/12/16 08:20:01;;;;;;;;;;;2.90;99.90;;;;;;5048409;28;19979;-51
2021/12/16 08:22:28;;;;;;;;;;;2.90;99.90;;;;;;5067088;28;19925;-52
2021/12/16 08:24:55;;;;;;;;;;;2.90;99.90;;;;;;5053711;28;19979;-50
2021/12/16 08:27:21;;;;;;;;;;;2.60;99.90;;;;;;5044249;28;19971;-51
2021/12/16 08:29:49;;;;;;;;;;;2.60;99.90;;;;;;5054119;28;19925;-51
2021/12/16 08:32:17;;;;;;;;;;;2.80;99.90;;;;;;5047296;28;19928;-51
2021/12/16 08:34:45;;;;;;;;;;;2.90;99.90;;;;;;5059192;28;19924;-51
2021/12/16 08:37:14;;;;;;;;;;;2.80;99.90;;;;;;5054759;28;20398;-51
2021/12/16 08:39:41;;;;;;;;;;;2.80;99.90;;;;;;5069100;28;19932;-51
2021/12/16 08:42:09;;;;;;;;;;;3.00;99.90;;;;;;5057245;28;19963;-51
2021/12/16 08:44:37;;;;;;;;;;;3.20;99.90;;;;;;5054633;28;20366;-52
2021/12/16 08:47:05;;;;;;;;;;;3.30;99.90;;;;;;5054814;28;19933;-51
2021/12/16 08:49:33;;;;;;;;;;;3.30;99.90;;;;;;5054524;28;19928;-51
2021/12/16 08:52:04;;;;;;;;;;;3.30;99.90;;;;;;5069760;28;20443;-51
2021/12/16 08:54:31;;;;;;;;;;;3.10;99.90;;;;;;5074313;28;19971;-51
2021/12/16 08:56:58;;;;;;;;;;;3.20;99.90;;;;;;5074660;28;19925;-51
2021/12/16 08:59:25;;;;;;;;;;;3.30;99.90;;;;;;5054932;28;19925;-51
2021/12/16 09:01:54;;;;;;;;;;;3.40;99.90;;;;;;5054213;28;19925;-51
2021/12/16 09:04:23;;;;;;;;;;;3.50;99.90;;;;;;5053881;28;19986;-52
2021/12/16 09:06:51;;;;;;;;;;;3.60;99.90;;;;;;5054403;28;19925;-51
2021/12/16 09:09:18;;;;;;;;;;;3.60;99.90;;;;;;5054314;28;19928;-51
2021/12/16 09:12:01;;;;;;;;;;;3.70;99.90;;;;;;5054234;28;19987;-52
2021/12/16 09:14:28;;;;;;;;;;;3.70;99.90;;;;;;5054034;28;19924;-51
2021/12/16 09:16:56;;;;;;;;;;;3.70;99.90;;;;;;5054171;28;19986;-51
2021/12/16 09:19:23;;;;;;;;;;;3.40;99.90;;;;;;5054026;28;19924;-53
2021/12/16 09:21:51;;;;;;;;;;;3.20;99.90;;;;;;5053870;28;19971;-51
2021/12/16 09:24:18;;;;;;;;;;;3.10;99.90;;;;;;5054074;28;19978;-51
2021/12/16 09:26:45;;;;;;;;;;;3.30;99.90;;;;;;5053948;28;19979;-50
2021/12/16 09:29:12;;;;;;;;;;;3.30;99.90;;;;;;5053473;28;19933;-51
2021/12/16 09:31:40;;;;;;;;;;;3.30;99.90;;;;;;5053322;28;19925;-51
2021/12/16 09:34:08;;;;;;;;;;;3.30;99.90;;;;;;5053552;28;19986;-51
2021/12/16 09:36:37;;;;;;;;;;;3.20;99.90;;;;;;5053880;28;19931;-53
2021/12/16 09:39:06;;;;;;;;;;;3.40;99.90;;;;;;5053537;28;20379;-51
2021/12/16 09:41:33;;;;;;;;;;;3.40;99.90;;;;;;5052376;28;20452;-52
2021/12/16 09:44:00;;;;;;;;;;;3.50;99.90;;;;;;5050280;28;19995;-51
2021/12/16 09:46:29;;;;;;;;;;;3.30;99.90;;;;;;5049768;28;19951;-51
2021/12/16 09:48:57;;;;;;;;;;;3.50;99.90;;;;;;5045313;28;20374;-51
2021/12/16 09:51:25;;;;;;;;;;;3.60;99.90;;;;;;5045536;28;19932;-51
2021/12/16 09:53:53;;;;;;;;;;;3.70;99.90;;;;;;5047837;28;20370;-53
2021/12/16 09:56:22;;;;;;;;;;;3.60;99.90;;;;;;5049379;28;19971;-52
2021/12/16 09:58:50;;;;;;;;;;;3.60;99.90;;;;;;5047756;28;19940;-51
2021/12/16 10:01:17;;;;;;;;;;;3.80;99.90;;;;;;5052992;28;19928;-51
2021/12/16 10:03:46;;;;;;;;;;;3.60;99.90;;;;;;5052808;28;19987;-52
2021/12/16 10:06:14;;;;;;;;;;;3.70;99.90;;;;;;5053251;28;19925;-51
2021/12/16 10:08:41;;;;;;;;;;;3.80;99.90;;;;;;5053313;28;19971;-50
2021/12/16 10:11:09;;;;;;;;;;;3.80;99.90;;;;;;5052895;28;20019;-52
2021/12/16 10:13:44;;;;;;;;;;;3.80;99.90;;;;;;5053072;28;19951;-51
2021/12/16 10:18:55;;;;;;;;;;;3.80;99.90;;;;;;5053167;28;20405;-51
2021/12/16 10:21:23;;;;;;;;;;;3.90;99.90;;;;;;5052042;28;20532;-51
2021/12/16 10:23:50;;;;;;;;;;;3.90;99.90;;;;;;5051962;28;19964;-50
2021/12/16 10:26:18;;;;;;;;;;;3.90;99.90;;;;;;5052739;28;19928;-52
2021/12/16 10:28:47;;;;;;;;;;;4.10;99.90;;;;;;5052726;28;19974;-51
2021/12/16 10:31:18;;;;;;;;;;;4.20;99.90;;;;;;5052021;28;19978;-51
2021/12/16 10:33:46;;;;;;;;;;;4.10;99.90;;;;;;5050564;28;19928;-52
2021/12/16 10:36:15;;;;;;;;;;;4.20;99.90;;;;;;5052443;28;19933;-50
2021/12/16 10:38:43;;;;;;;;;;;4.00;99.90;;;;;;5052646;28;19929;-51
2021/12/16 10:41:11;;;;;;;;;;;3.90;99.90;;;;;;5051941;28;19929;-51
2021/12/16 10:43:40;;;;;;;;;;;3.70;99.90;;;;;;5052414;28;19978;-51
2021/12/16 10:46:10;;;;;;;;;;;3.50;99.90;;;;;;5051566;28;20011;-53
2021/12/16 10:48:39;;;;;;;;;;;3.50;99.90;;;;;;5051501;28;19933;-50
2021/12/16 10:51:22;;;;;;;;;;;3.80;99.90;;;;;;5051520;28;19994;-51
2021/12/16 10:53:57;;;;;;;;;;;3.80;99.90;;;;;;5054166;28;19928;-51
2021/12/16 10:56:25;;;;;;;;;;;3.80;99.90;;;;;;5048073;28;19983;-51
2021/12/16 10:58:54;;;;;;;;;;;3.70;99.90;;;;;;5051078;28;20023;-52
2021/12/16 11:01:36;;;;;;;;;;;3.60;99.90;;;;;;5050241;28;19971;-50
2021/12/16 11:04:07;;;;;;;;;;;3.70;99.90;;;;;;5046000;28;19978;-52
2021/12/16 11:06:36;;;;;;;;;;;3.80;99.90;;;;;;5052125;28;20012;-51
2021/12/16 11:09:21;;;;;;;;;;;3.70;99.90;;;;;;5048709;28;19928;-50
2021/12/16 11:11:48;;;;;;;;;;;3.50;99.90;;;;;;5049952;28;20287;-51
2021/12/16 11:14:22;;;;;;;;;;;3.80;99.90;;;;;;5053138;28;19925;-50
2021/12/16 11:16:58;;;;;;;;;;;4.00;99.90;;;;;;5051830;28;19929;-51
2021/12/16 11:19:45;;;;;;;;;;;4.10;99.90;;;;;;5051943;28;19924;-51
2021/12/16 11:22:12;;;;;;;;;;;4.00;99.90;;;;;;5051821;28;20051;-51
2021/12/16 11:24:39;;;;;;;;;;;4.10;99.90;;;;;;5051804;28;19925;-50
2021/12/16 11:27:23;;;;;;;;;;;4.10;99.90;;;;;;5052788;28;19932;-51
2021/12/16 11:29:50;;;;;;;;;;;4.20;99.90;;;;;;5064481;28;20394;-52
2021/12/16 11:32:39;;;;;;;;;;;4.20;99.90;;;;;;5050802;28;19932;-50
2021/12/16 11:35:21;;;;;;;;;;;4.20;99.90;;;;;;5031776;28;19925;-51
2021/12/16 11:37:48;;;;;;;;;;;4.30;99.90;;;;;;5050591;28;20295;-52
2021/12/16 11:40:15;;;;;;;;;;;4.30;99.90;;;;;;5051368;28;20390;-51
2021/12/16 11:42:42;;;;;;;;;;;4.40;99.90;;;;;;5050940;28;19966;-50
2021/12/16 11:45:09;;;;;;;;;;;4.20;99.90;;;;;;5051143;28;20348;-51
2021/12/16 11:47:46;;;;;;;;;;;4.30;99.90;;;;;;5054750;28;19970;-51
2021/12/16 11:50:14;;;;;;;;;;;4.40;99.90;;;;;;5051728;28;19932;-52
2021/12/16 11:52:41;;;;;;;;;;;4.50;99.90;;;;;;5051584;28;19932;-51
2021/12/16 11:55:09;;;;;;;;;;;4.70;99.90;;;;;;5053863;28;19932;-51
2021/12/16 11:57:37;;;;;;;;;;;4.50;99.90;;;;;;5054942;28;19924;-51
2021/12/16 12:00:07;;;;;;;;;;;4.40;99.90;;;;;;5054871;28;19978;-51
2021/12/16 12:02:36;;;;;;;;;;;4.40;99.90;;;;;;5055521;28;19928;-53
2021/12/16 12:05:16;;;;;;;;;;;4.40;99.90;;;;;;5055372;28;19933;-51
2021/12/16 12:07:44;;;;;;;;;;;4.10;99.90;;;;;;5035659;28;20366;-51
2021/12/16 12:10:11;;;;;;;;;;;4.20;99.90;;;;;;5054834;28;19928;-51
2021/12/16 12:12:42;;;;;;;;;;;4.20;99.90;;;;;;5053188;28;19932;-51
2021/12/16 12:15:10;;;;;;;;;;;4.40;99.90;;;;;;5055076;28;20554;-51
2021/12/16 12:17:43;;;;;;;;;;;4.50;99.90;;;;;;5053202;28;19924;-50
2021/12/16 12:20:10;;;;;;;;;;;4.50;99.90;;;;;;5054343;28;19924;-51
2021/12/16 12:22:38;;;;;;;;;;;4.20;99.90;;;;;;5054019;28;19970;-52
2021/12/16 12:25:05;;;;;;;;;;;4.40;99.90;;;;;;5053983;28;19971;-52
2021/12/16 12:27:32;;;;;;;;;;;4.20;99.90;;;;;;5051701;28;19925;-51
2021/12/16 12:29:59;;;;;;;;;;;4.00;99.90;;;;;;5056936;28;19924;-51
2021/12/16 12:32:27;;;;;;;;;;;4.00;99.90;;;;;;5054870;28;19987;-51
2021/12/16 12:34:56;;;;;;;;;;;4.30;99.90;;;;;;5067982;28;20290;-50
2021/12/16 12:37:24;;;;;;;;;;;4.40;99.90;;;;;;5073942;28;19925;-50
2021/12/16 12:39:55;;;;;;;;;;;4.40;99.90;;;;;;5054436;28;19978;-52
2021/12/16 12:42:22;;;;;;;;;;;4.40;99.90;;;;;;5054556;28;19979;-52
2021/12/16 12:44:48;;;;;;;;;;;4.30;99.90;;;;;;5054777;28;19983;-50
2021/12/16 12:47:17;;;;;;;;;;;4.20;99.90;;;;;;5056628;28;19979;-51
2021/12/16 12:49:44;;;;;;;;;;;3.90;99.90;;;;;;5054348;28;19929;-51
2021/12/16 12:52:12;;;;;;;;;;;4.00;99.90;;;;;;5053870;28;20341;-51
2021/12/16 12:54:42;;;;;;;;;;;4.20;99.90;;;;;;5054400;28;20436;-51
2021/12/16 12:57:21;;;;;;;;;;;4.40;99.90;;;;;;5054149;28;20399;-51
2021/12/16 12:59:48;;;;;;;;;;;4.50;99.90;;;;;;5054035;28;19924;-51
2021/12/16 13:02:17;;;;;;;;;;;4.50;99.90;;;;;;5054274;28;19924;-50
2021/12/16 13:04:46;;;;;;;;;;;4.50;99.90;;;;;;5053734;28;20519;-51
2021/12/16 13:07:13;;;;;;;;;;;4.50;99.90;;;;;;5054207;28;19929;-51
2021/12/16 13:09:41;;;;;;;;;;;4.10;99.90;;;;;;5053550;28;19978;-52
2021/12/16 13:12:35;;;;;;;;;;;4.10;99.90;;;;;;5053582;28;20019;-52
2021/12/16 13:15:11;;;;;;;;;;;4.20;99.90;;;;;;5054014;28;19931;-53
2021/12/16 13:23:29;;;;;;;;;;;4.40;99.90;;;;;;5065263;28;19959;-51
2021/12/16 13:28:59;;;;;;;;;;;4.30;99.90;;;;;;5053134;28;19927;-52
2021/12/16 13:31:28;;;;;;;;;;;4.30;99.90;;;;;;5049212;28;20018;-51
2021/12/16 13:33:57;;;;;;;;;;;4.30;99.90;;;;;;5044494;28;19936;-50
2021/12/16 13:36:40;;;;;;;;;;;4.20;99.90;;;;;;5052701;28;19936;-50
2021/12/16 13:39:10;;;;;;;;;;;4.30;99.90;;;;;;5045936;28;19928;-50
2021/12/16 13:41:52;;;;;;;;;;;4.30;99.90;;;;;;5051513;28;19971;-51
2021/12/16 13:44:34;;;;;;;;;;;4.30;99.90;;;;;;5054674;28;19940;-52
2021/12/16 13:47:07;;;;;;;;;;;4.40;99.90;;;;;;5039917;28;19924;-52
2021/12/16 13:58:21;;;;;;;;;;;4.50;99.90;;;;;;5033875;28;19955;-51
2021/12/16 14:01:13;;;;;;;;;;;4.40;99.90;;;;;;5056476;28;19928;-52
2021/12/16 14:03:53;;;;;;;;;;;4.20;99.90;;;;;;5068594;28;19924;-51
2021/12/16 14:06:33;;;;;;;;;;;4.10;99.90;;;;;;5053570;28;19963;-51
2021/12/16 14:09:12;;;;;;;;;;;4.20;99.90;;;;;;5053566;28;20398;-51
2021/12/16 14:14:43;;;;;;;;;;;4.10;99.90;;;;;;5051400;28;19921;-51
2021/12/16 14:17:28;;;;;;;;;;;4.10;99.90;;;;;;5052410;28;20430;-52
2021/12/16 14:23:07;;;;;;;;;;;4.10;99.90;;;;;;5033311;28;19932;-50
2021/12/16 14:25:39;;;;;;;;;;;3.90;99.90;;;;;;5033921;28;19940;-50
2021/12/16 14:31:32;;;;;;;;;;;4.00;99.90;;;;;;5033220;28;19932;-50
2021/12/16 14:37:21;;;;;;;;;;;4.10;99.90;;;;;;4969516;28;19938;-51
2021/12/16 14:40:00;;;;;;;;;;;4.10;99.90;;;;;;5047128;28;20012;-50
2021/12/16 14:42:44;;;;;;;;;;;4.00;99.90;;;;;;5051564;28;19931;-51
2021/12/16 14:45:19;;;;;;;;;;;4.10;99.90;;;;;;5045170;28;19925;-52
2021/12/16 14:50:35;;;;;;;;;;;4.10;99.90;;;;;;5049052;28;19998;-51
2021/12/16 14:53:13;;;;;;;;;;;4.00;99.90;;;;;;5051986;28;19925;-51
2021/12/16 14:55:39;;;;;;;;;;;4.00;99.90;;;;;;5051902;28;20279;-51
2021/12/16 14:58:06;;;;;;;;;;;4.10;99.90;;;;;;5072321;28;19928;-51
2021/12/16 15:00:38;;;;;;;;;;;3.90;99.90;;;;;;5063639;28;19925;-51
2021/12/16 15:03:08;;;;;;;;;;;4.00;99.90;;;;;;5051100;28;19935;-52
2021/12/16 15:05:38;;;;;;;;;;;3.90;99.90;;;;;;5051790;28;20373;-52
2021/12/16 15:08:09;;;;;;;;;;;3.80;99.90;;;;;;5053909;28;20314;-52
2021/12/16 15:10:38;;;;;;;;;;;3.70;99.90;;;;;;5073295;28;20015;-51
2021/12/16 15:13:11;;;;;;;;;;;3.40;99.90;;;;;;5054985;28;19929;-51
2021/12/16 15:15:47;;;;;;;;;;;3.20;99.90;;;;;;5051583;28;19925;-50
2021/12/16 15:37:51;;;;;;;;;;;3.90;99.90;;;;;;5052227;28;19921;-54
2021/12/16 15:40:32;;;;;;;;;;;3.80;99.90;;;;;;5034108;28;19925;-51
2021/12/16 15:43:02;;;;;;;;;;;3.70;99.90;;;;;;5051589;28;20330;-50
2021/12/16 15:45:30;;;;;;;;;;;3.70;99.90;;;;;;5053014;28;20012;-51
2021/12/16 15:47:59;;;;;;;;;;;3.80;99.90;;;;;;5052029;28;19932;-50
2021/12/16 15:50:28;;;;;;;;;;;3.90;99.90;;;;;;5049147;28;19925;-52
2021/12/16 15:52:55;;;;;;;;;;;3.80;99.90;;;;;;5048154;28;19929;-51
2021/12/16 15:55:25;;;;;;;;;;;3.80;99.90;;;;;;5050109;28;19925;-52
2021/12/16 15:57:52;;;;;;;;;;;3.80;99.90;;;;;;5050623;28;19925;-53
2021/12/16 16:00:22;;;;;;;;;;;3.90;99.90;;;;;;5048938;28;20344;-51
2021/12/16 16:02:49;;;;;;;;;;;4.10;99.90;;;;;;5047952;28;19982;-51
2021/12/16 16:05:16;;;;;;;;;;;4.20;99.90;;;;;;5050913;28;19928;-50
2021/12/16 16:07:43;;;;;;;;;;;4.00;99.90;;;;;;5051706;28;19925;-50
2021/12/16 16:10:13;;;;;;;;;;;3.90;99.90;;;;;;5051877;28;20311;-52
2021/12/16 16:12:39;;;;;;;;;;;4.20;99.90;;;;;;5051643;28;19926;-51
2021/12/16 16:15:17;;;;;;;;;;;4.30;99.90;;;;;;5050598;28;19932;-50
2021/12/16 16:17:55;;;;;;;;;;;4.00;99.90;;;;;;5050911;28;19956;-51
2021/12/16 16:20:22;;;;;;;;;;;4.00;99.90;;;;;;5051813;28;19933;-51
2021/12/16 16:22:49;;;;;;;;;;;3.80;99.90;;;;;;5063500;28;19935;-51
2021/12/16 16:25:16;;;;;;;;;;;3.90;99.90;;;;;;5051103;28;19925;-51
2021/12/16 16:27:43;;;;;;;;;;;4.00;99.90;;;;;;5050892;28;20348;-50
2021/12/16 16:30:10;;;;;;;;;;;3.90;99.90;;;;;;5051642;28;20279;-51
2021/12/16 16:32:56;;;;;;;;;;;3.90;99.90;;;;;;5050920;28;19924;-51
2021/12/16 16:35:24;;;;;;;;;;;3.90;99.90;;;;;;5049422;28;19932;-50
2021/12/16 16:37:51;;;;;;;;;;;3.90;99.90;;;;;;5051251;28;19978;-53
2021/12/16 16:40:18;;;;;;;;;;;3.70;99.90;;;;;;5052849;28;19932;-50
2021/12/16 16:42:46;;;;;;;;;;;3.80;99.90;;;;;;5054167;28;19925;-50
2021/12/16 16:45:18;;;;;;;;;;;3.70;99.90;;;;;;5054066;28;19936;-50
2021/12/16 16:47:51;;;;;;;;;;;3.50;99.90;;;;;;5054601;28;20271;-52
2021/12/16 16:50:19;;;;;;;;;;;3.20;99.90;;;;;;5054689;28;19925;-50
2021/12/16 16:52:48;;;;;;;;;;;3.40;99.90;;;;;;5054306;28;20397;-51
2021/12/16 16:55:16;;;;;;;;;;;3.40;99.90;;;;;;5053848;28;20401;-51
2021/12/16 16:57:46;;;;;;;;;;;3.30;99.90;;;;;;5055590;28;20015;-57
2021/12/16 17:00:14;;;;;;;;;;;3.30;99.90;;;;;;5074778;28;20413;-50
2021/12/16 17:02:43;;;;;;;;;;;3.50;99.90;;;;;;5066618;28;19928;-51
2021/12/16 17:05:11;;;;;;;;;;;3.50;99.90;;;;;;5053330;28;19924;-51
2021/12/16 17:07:40;;;;;;;;;;;3.50;99.90;;;;;;5051133;28;19924;-53
2021/12/16 17:10:19;;;;;;;;;;;3.40;99.90;;;;;;5060534;28;19928;-51
2021/12/16 17:12:46;;;;;;;;;;;3.50;99.90;;;;;;5054810;28;19932;-52
2021/12/16 17:15:29;;;;;;;;;;;3.40;99.90;;;;;;5064191;28;19925;-50
2021/12/16 17:17:56;;;;;;;;;;;3.60;99.90;;;;;;5053911;28;19929;-50
2021/12/16 17:20:23;;;;;;;;;;;3.50;99.90;;;;;;5054213;28;19928;-50
2021/12/16 17:22:52;;;;;;;;;;;3.40;99.90;;;;;;5054364;28;19944;-53
2021/12/16 17:25:22;;;;;;;;;;;3.40;99.90;;;;;;5058089;28;19947;-50
2021/12/16 17:27:52;;;;;;;;;;;3.30;99.90;;;;;;5060084;28;19928;-52
2021/12/16 17:30:21;;;;;;;;;;;3.40;99.90;;;;;;5053834;28;20310;-50
2021/12/16 17:32:50;;;;;;;;;;;3.30;99.90;;;;;;5054218;28;19932;-52
2021/12/16 17:35:19;;;;;;;;;;;3.30;99.90;;;;;;5054207;28;20353;-51
2021/12/16 17:37:48;;;;;;;;;;;3.40;99.90;;;;;;5050258;28;19983;-52
2021/12/16 17:40:17;;;;;;;;;;;3.30;99.90;;;;;;5053668;28;19925;-51
2021/12/16 17:42:47;;;;;;;;;;;3.30;99.90;;;;;;5053658;28;20449;-51
2021/12/16 17:45:19;;;;;;;;;;;3.30;99.90;;;;;;5053606;28;19986;-51
2021/12/16 17:47:47;;;;;;;;;;;3.40;99.90;;;;;;5053752;28;19929;-50